Time;durP1;ratioP1;P1;durP2;ratioP2;P2;SDS_P1;SDS_P2;PMS_P1;PMS_P2;Temp;Humidity;BMP_temperature;BMP_pressure;BME280_temperature;BME280_humidity;BME280_pressure;Samples;Min_cycle;Max_cycle;Signal;HPM_P1;HPM_P2
2022/08/03 00:02:05;;;;;;;6.60;3.33;;;;;;;;;;5067049;28;20032;-65
2022/08/03 00:04:51;;;;;;;4.22;3.72;;;;;;;;;;5067022;28;20088;-65
2022/08/03 00:07:37;;;;;;;5.43;3.30;;;;;;;;;;5069077;28;20032;-65
2022/08/03 00:10:23;;;;;;;4.10;3.13;;;;;;;;;;5069677;28;20249;-65
2022/08/03 00:13:11;;;;;;;4.53;3.17;;;;;;;;;;5060552;28;20498;-65
2022/08/03 00:15:57;;;;;;;4.33;3.60;;;;;;;;;;5068946;28;20037;-59
2022/08/03 00:18:43;;;;;;;4.80;3.25;;;;;;;;;;5067774;28;20016;-68
2022/08/03 00:21:28;;;;;;;4.97;3.30;;;;;;;;;;5065550;28;20020;-63
2022/08/03 00:24:14;;;;;;;4.82;3.50;;;;;;;;;;5064928;28;20472;-62
2022/08/03 00:26:59;;;;;;;5.57;3.15;;;;;;;;;;5064886;28;20035;-63
2022/08/03 00:29:45;;;;;;;5.40;3.25;;;;;;;;;;5068622;28;20031;-62
2022/08/03 00:32:30;;;;;;;6.57;3.58;;;;;;;;;;5064894;28;20029;-62
2022/08/03 00:35:16;;;;;;;5.07;3.13;;;;;;;;;;5068318;28;20472;-71
2022/08/03 00:38:02;;;;;;;4.30;3.42;;;;;;;;;;5065156;28;20028;-63
2022/08/03 00:40:48;;;;;;;5.95;3.22;;;;;;;;;;5064043;28;20044;-63
2022/08/03 00:43:33;;;;;;;6.95;3.47;;;;;;;;;;5065290;28;20521;-63
2022/08/03 00:46:21;;;;;;;7.60;3.67;;;;;;;;;;5064734;28;20024;-63
2022/08/03 00:49:06;;;;;;;11.40;4.13;;;;;;;;;;5065189;28;20456;-63
2022/08/03 00:51:52;;;;;;;12.52;7.00;;;;;;;;;;5066157;28;20134;-61
2022/08/03 00:54:38;;;;;;;7.75;4.35;;;;;;;;;;5057911;28;20530;-62
2022/08/03 00:57:23;;;;;;;5.10;3.78;;;;;;;;;;5063712;28;20518;-63
2022/08/03 01:00:10;;;;;;;4.60;3.17;;;;;;;;;;5068517;28;20072;-64
2022/08/03 01:02:56;;;;;;;6.60;3.78;;;;;;;;;;5063974;28;20105;-64
2022/08/03 01:05:41;;;;;;;5.40;3.10;;;;;;;;;;5074824;28;20395;-63
2022/08/03 01:08:36;;;;;;;4.80;3.50;;;;;;;;;;5076337;28;20282;-62
2022/08/03 01:11:26;;;;;;;5.97;3.30;;;;;;;;;;5071734;28;20040;-62
2022/08/03 01:14:18;;;;;;;4.82;3.42;;;;;;;;;;5074362;28;20437;-71
2022/08/03 01:17:10;;;;;;;6.03;3.00;;;;;;;;;;5067395;28;20089;-71
2022/08/03 01:20:01;;;;;;;4.50;3.15;;;;;;;;;;5064027;28;20020;-71
2022/08/03 01:22:49;;;;;;;6.85;3.03;;;;;;;;;;5073324;28;20106;-70
2022/08/03 01:25:35;;;;;;;6.60;3.47;;;;;;;;;;5072654;28;20525;-71
2022/08/03 01:28:24;;;;;;;6.43;3.20;;;;;;;;;;5074469;28;20395;-71
2022/08/03 01:31:10;;;;;;;7.37;3.37;;;;;;;;;;5067006;28;20050;-77
2022/08/03 01:33:57;;;;;;;5.60;3.05;;;;;;;;;;5067188;28;20629;-62
2022/08/03 01:36:47;;;;;;;5.10;3.70;;;;;;;;;;5068591;28;20028;-62
2022/08/03 01:39:36;;;;;;;6.53;3.88;;;;;;;;;;5071414;28;20023;-62
2022/08/03 01:42:22;;;;;;;4.70;3.15;;;;;;;;;;5062333;28;20028;-61
2022/08/03 01:45:09;;;;;;;5.10;3.53;;;;;;;;;;5063101;28;20037;-62
2022/08/03 01:47:55;;;;;;;3.67;3.22;;;;;;;;;;5067748;28;20052;-63
2022/08/03 01:50:41;;;;;;;5.63;3.13;;;;;;;;;;5070468;28;20376;-63
2022/08/03 01:53:27;;;;;;;4.97;3.28;;;;;;;;;;5071133;28;20055;-64
2022/08/03 01:56:14;;;;;;;3.47;2.67;;;;;;;;;;5063741;28;20083;-63
2022/08/03 01:59:01;;;;;;;5.10;3.33;;;;;;;;;;5071813;28;20024;-64
2022/08/03 02:01:47;;;;;;;5.00;3.55;;;;;;;;;;5068635;28;20033;-62
2022/08/03 02:04:34;;;;;;;4.82;3.30;;;;;;;;;;5071271;28;20016;-63
2022/08/03 02:07:19;;;;;;;4.53;3.50;;;;;;;;;;5070841;28;20024;-61
2022/08/03 02:10:05;;;;;;;4.90;3.20;;;;;;;;;;5064630;28;20039;-62
2022/08/03 02:12:51;;;;;;;5.22;3.70;;;;;;;;;;5064819;28;20035;-62
2022/08/03 02:15:37;;;;;;;4.75;3.50;;;;;;;;;;5066118;28;20380;-63
2022/08/03 02:18:23;;;;;;;5.38;3.50;;;;;;;;;;5067437;28;20020;-61
2022/08/03 02:21:09;;;;;;;3.75;2.85;;;;;;;;;;5063810;28;20023;-62
2022/08/03 02:23:55;;;;;;;5.40;3.60;;;;;;;;;;5067696;28;20029;-72
2022/08/03 02:26:42;;;;;;;5.68;3.03;;;;;;;;;;5069193;28;20115;-64
2022/08/03 02:29:31;;;;;;;5.35;3.40;;;;;;;;;;5070556;28;20040;-78
2022/08/03 02:32:19;;;;;;;3.70;2.85;;;;;;;;;;5068833;28;20097;-78
2022/08/03 02:35:07;;;;;;;6.00;3.22;;;;;;;;;;5055770;28;20210;-77
2022/08/03 02:37:57;;;;;;;6.03;3.55;;;;;;;;;;5061082;28;20021;-77
2022/08/03 02:40:43;;;;;;;4.55;3.10;;;;;;;;;;5071614;28;20021;-76
2022/08/03 02:43:29;;;;;;;4.85;3.25;;;;;;;;;;5069571;28;20019;-71
2022/08/03 02:46:17;;;;;;;5.35;3.30;;;;;;;;;;5062099;28;20061;-71
2022/08/03 02:49:02;;;;;;;4.35;3.20;;;;;;;;;;5068263;28;20055;-71
2022/08/03 02:51:49;;;;;;;5.50;3.22;;;;;;;;;;5069236;28;20035;-73
2022/08/03 02:54:35;;;;;;;4.18;3.38;;;;;;;;;;5066427;28;20020;-71
2022/08/03 02:57:22;;;;;;;5.00;3.13;;;;;;;;;;5058842;28;20396;-70
2022/08/03 03:00:08;;;;;;;8.05;3.45;;;;;;;;;;5067880;28;20028;-71
2022/08/03 03:02:55;;;;;;;3.97;3.00;;;;;;;;;;5059132;28;20099;-62
2022/08/03 03:05:41;;;;;;;4.00;2.80;;;;;;;;;;5066945;28;20017;-62
2022/08/03 03:08:27;;;;;;;5.65;3.10;;;;;;;;;;5070116;28;20028;-62
2022/08/03 03:11:13;;;;;;;5.15;3.22;;;;;;;;;;5069048;28;20497;-61
2022/08/03 03:13:59;;;;;;;5.03;3.33;;;;;;;;;;5055999;28;20461;-65
2022/08/03 03:16:46;;;;;;;6.20;3.20;;;;;;;;;;5067233;28;20075;-62
2022/08/03 03:19:31;;;;;;;5.60;3.17;;;;;;;;;;5064060;28;20483;-62
2022/08/03 03:22:17;;;;;;;5.35;3.42;;;;;;;;;;5068543;28;20017;-64
2022/08/03 03:25:04;;;;;;;3.63;2.92;;;;;;;;;;5070551;28;20365;-61
2022/08/03 03:27:50;;;;;;;3.95;3.10;;;;;;;;;;5068187;28;20376;-63
2022/08/03 03:30:36;;;;;;;6.78;3.08;;;;;;;;;;5059278;28;20024;-61
2022/08/03 03:33:22;;;;;;;4.95;3.60;;;;;;;;;;5070562;28;20024;-62
2022/08/03 03:36:09;;;;;;;3.58;3.13;;;;;;;;;;5066431;28;20487;-60
2022/08/03 03:38:54;;;;;;;5.68;3.42;;;;;;;;;;5066193;28;20073;-81
2022/08/03 03:41:40;;;;;;;4.93;3.47;;;;;;;;;;5058445;28;20399;-63
2022/08/03 03:44:28;;;;;;;5.32;3.65;;;;;;;;;;5066083;28;20526;-67
2022/08/03 03:47:14;;;;;;;6.55;3.65;;;;;;;;;;5066441;28;20036;-64
2022/08/03 03:50:03;;;;;;;6.32;3.45;;;;;;;;;;5067369;28;20033;-65
2022/08/03 03:52:49;;;;;;;;;;;;;;;;;;5070637;28;20526;-62
2022/08/03 03:55:35;;;;;;;6.90;3.55;;;;;;;;;;5068388;28;19916;-63
2022/08/03 03:58:20;;;;;;;4.70;3.58;;;;;;;;;;5067664;28;20020;-59
2022/08/03 04:01:07;;;;;;;5.57;3.55;;;;;;;;;;5065713;28;20031;-65
2022/08/03 04:03:53;;;;;;;4.40;3.55;;;;;;;;;;5056448;28;20051;-64
2022/08/03 04:12:49;;;;;;;4.75;3.28;;;;;;;;;;5067328;28;20436;-65
2022/08/03 04:15:36;;;;;;;8.10;3.78;;;;;;;;;;5068122;28;20348;-64
2022/08/03 04:18:22;;;;;;;5.03;3.65;;;;;;;;;;5058204;28;20021;-63
2022/08/03 04:21:10;;;;;;;5.53;3.65;;;;;;;;;;5068709;28;20407;-63
2022/08/03 04:23:58;;;;;;;5.57;3.78;;;;;;;;;;5067448;28;20028;-62
2022/08/03 04:26:44;;;;;;;5.72;3.35;;;;;;;;;;5069211;28;20020;-63
2022/08/03 04:29:32;;;;;;;5.65;3.70;;;;;;;;;;5070626;28;20079;-63
2022/08/03 04:32:19;;;;;;;8.38;4.03;;;;;;;;;;5067555;28;20036;-63
2022/08/03 04:35:05;;;;;;;8.45;4.25;;;;;;;;;;5068782;28;20033;-66
2022/08/03 04:37:51;;;;;;;5.82;3.65;;;;;;;;;;5062473;28;20051;-62
2022/08/03 04:40:38;;;;;;;4.97;3.33;;;;;;;;;;5068170;28;20023;-62
2022/08/03 04:43:24;;;;;;;5.55;3.85;;;;;;;;;;5060876;28;20124;-62
2022/08/03 04:46:11;;;;;;;6.85;4.30;;;;;;;;;;5061991;28;20596;-63
2022/08/03 04:48:57;;;;;;;6.53;3.58;;;;;;;;;;5068324;28;20058;-62
2022/08/03 04:51:43;;;;;;;4.72;3.35;;;;;;;;;;5068459;28;20020;-62
2022/08/03 04:54:29;;;;;;;7.80;3.72;;;;;;;;;;5060024;28;20029;-79
2022/08/03 04:57:15;;;;;;;4.60;3.45;;;;;;;;;;5064338;28;20025;-79
2022/08/03 05:00:01;;;;;;;6.10;3.65;;;;;;;;;;5068422;28;20414;-76
2022/08/03 05:02:46;;;;;;;6.28;3.75;;;;;;;;;;5064292;28;20035;-79
2022/08/03 05:05:32;;;;;;;5.30;3.40;;;;;;;;;;5060005;28;20048;-78
2022/08/03 05:08:18;;;;;;;5.57;3.67;;;;;;;;;;5061866;28;20039;-78
2022/08/03 05:11:03;;;;;;;5.47;4.13;;;;;;;;;;5067408;28;20113;-61
2022/08/03 05:13:49;;;;;;;5.15;3.92;;;;;;;;;;5069132;28;20143;-71
2022/08/03 05:16:35;;;;;;;4.40;3.83;;;;;;;;;;5067476;28;20083;-73
2022/08/03 05:19:20;;;;;;;5.57;3.88;;;;;;;;;;5056173;28;20021;-71
2022/08/03 05:22:06;;;;;;;6.13;3.88;;;;;;;;;;5057964;28;20029;-72
2022/08/03 05:24:51;;;;;;;4.78;3.78;;;;;;;;;;5060820;28;20017;-71
2022/08/03 05:27:37;;;;;;;5.82;3.80;;;;;;;;;;5063980;28;20104;-72
2022/08/03 05:30:22;;;;;;;5.40;4.03;;;;;;;;;;5066907;28;20025;-76
2022/08/03 05:33:08;;;;;;;4.95;3.70;;;;;;;;;;5059830;28;20387;-61
2022/08/03 05:35:54;;;;;;;7.40;4.28;;;;;;;;;;5064639;28;20043;-62
2022/08/03 05:38:39;;;;;;;6.45;4.07;;;;;;;;;;5066358;28;20464;-61
2022/08/03 05:41:25;;;;;;;8.32;4.25;;;;;;;;;;5064175;28;20104;-60
2022/08/03 05:44:10;;;;;;;6.15;3.80;;;;;;;;;;5060868;28;20013;-61
2022/08/03 05:46:56;;;;;;;9.10;3.20;;;;;;;;;;5064700;28;20056;-59
2022/08/03 05:49:42;;;;;;;7.63;4.00;;;;;;;;;;5069616;28;20109;-64
2022/08/03 05:52:27;;;;;;;7.22;3.90;;;;;;;;;;5065325;28;20024;-64
2022/08/03 05:55:13;;;;;;;6.28;3.88;;;;;;;;;;5065636;28;20028;-65
2022/08/03 05:58:01;;;;;;;4.97;3.28;;;;;;;;;;5064687;28;20478;-65
2022/08/03 06:00:46;;;;;;;8.05;3.88;;;;;;;;;;5056930;28;20016;-65
2022/08/03 06:03:32;;;;;;;6.13;3.42;;;;;;;;;;5064936;28;20047;-64
2022/08/03 06:06:17;;;;;;;6.95;3.65;;;;;;;;;;5069468;28;20479;-64
2022/08/03 06:09:03;;;;;;;6.97;3.58;;;;;;;;;;5063675;28;20033;-64
2022/08/03 06:11:49;;;;;;;4.82;3.60;;;;;;;;;;5071038;28;20494;-61
2022/08/03 06:14:34;;;;;;;7.28;4.13;;;;;;;;;;5068510;28;20099;-67
2022/08/03 06:17:20;;;;;;;5.88;3.28;;;;;;;;;;5069682;28;20065;-60
2022/08/03 06:20:05;;;;;;;5.15;3.70;;;;;;;;;;5070830;28;20479;-61
2022/08/03 06:22:51;;;;;;;5.93;3.58;;;;;;;;;;5071219;28;20020;-62
2022/08/03 06:25:37;;;;;;;8.10;3.80;;;;;;;;;;5072557;28;20013;-71
2022/08/03 06:28:22;;;;;;;7.38;3.97;;;;;;;;;;5065322;28;20058;-65
2022/08/03 06:31:08;;;;;;;6.20;3.38;;;;;;;;;;5070952;28;20098;-64
2022/08/03 06:33:53;;;;;;;8.85;3.30;;;;;;;;;;5069648;28;20401;-64
2022/08/03 06:36:39;;;;;;;10.93;3.63;;;;;;;;;;5069842;28;20033;-65
2022/08/03 06:39:24;;;;;;;5.35;3.47;;;;;;;;;;5070230;28;20013;-67
2022/08/03 06:42:10;;;;;;;4.15;2.95;;;;;;;;;;5069517;28;20028;-74
2022/08/03 06:44:55;;;;;;;7.57;3.30;;;;;;;;;;5063853;28;20029;-72
2022/08/03 06:47:41;;;;;;;5.97;3.20;;;;;;;;;;5064798;28;20052;-73
2022/08/03 06:50:27;;;;;;;4.75;3.30;;;;;;;;;;5064253;28;20108;-73
2022/08/03 06:53:12;;;;;;;5.75;3.15;;;;;;;;;;5065644;28;20024;-75
2022/08/03 06:55:58;;;;;;;5.68;2.95;;;;;;;;;;5055777;28;20043;-72
2022/08/03 06:58:43;;;;;;;4.97;2.67;;;;;;;;;;5070551;28;20487;-73
2022/08/03 07:01:29;;;;;;;5.93;3.20;;;;;;;;;;5069589;28;20044;-67
2022/08/03 07:04:15;;;;;;;4.07;2.67;;;;;;;;;;5067269;28;20013;-73
2022/08/03 07:07:00;;;;;;;6.35;2.92;;;;;;;;;;5059383;28;20036;-73
2022/08/03 07:09:47;;;;;;;4.85;2.70;;;;;;;;;;5064345;28;20136;-75
2022/08/03 07:12:32;;;;;;;3.10;2.55;;;;;;;;;;5064846;28;20514;-71
2022/08/03 07:15:18;;;;;;;4.22;2.60;;;;;;;;;;5062860;28;20024;-74
2022/08/03 07:18:04;;;;;;;4.95;3.13;;;;;;;;;;5065646;28;20044;-74
2022/08/03 07:20:50;;;;;;;4.28;2.78;;;;;;;;;;5057642;28;20431;-73
2022/08/03 07:23:35;;;;;;;7.75;3.30;;;;;;;;;;5066349;28;20045;-68
2022/08/03 07:26:21;;;;;;;7.18;3.20;;;;;;;;;;5069924;28;20043;-64
2022/08/03 07:29:06;;;;;;;3.50;2.60;;;;;;;;;;5065223;28;20460;-64
2022/08/03 07:31:52;;;;;;;7.43;2.70;;;;;;;;;;5067790;28;20089;-66
2022/08/03 07:34:37;;;;;;;3.42;2.50;;;;;;;;;;5057169;28;20039;-65
2022/08/03 07:37:23;;;;;;;9.38;2.65;;;;;;;;;;5067146;28;20036;-67
2022/08/03 07:40:09;;;;;;;3.70;1.83;;;;;;;;;;5062133;28;20027;-86
2022/08/03 07:42:54;;;;;;;6.47;2.75;;;;;;;;;;5067445;28;20503;-82
2022/08/03 07:45:40;;;;;;;4.82;2.10;;;;;;;;;;5063261;28;20025;-78
2022/08/03 07:48:25;;;;;;;5.20;2.30;;;;;;;;;;5063841;28;20143;-82
2022/08/03 07:51:11;;;;;;;4.40;2.42;;;;;;;;;;5068266;28;20042;-82
2022/08/03 07:53:56;;;;;;;6.97;2.85;;;;;;;;;;5066930;28;20032;-77
2022/08/03 07:56:42;;;;;;;5.80;2.30;;;;;;;;;;5062562;28;20085;-68
2022/08/03 07:59:28;;;;;;;2.67;1.90;;;;;;;;;;5065385;28;20059;-70
2022/08/03 08:02:13;;;;;;;8.63;2.47;;;;;;;;;;5065843;28;20040;-66
2022/08/03 08:04:59;;;;;;;3.78;2.20;;;;;;;;;;5062992;28;20365;-66
2022/08/03 08:07:44;;;;;;;3.50;1.80;;;;;;;;;;5068243;28;20479;-65
2022/08/03 08:10:31;;;;;;;4.55;2.10;;;;;;;;;;5058614;28;20017;-71
2022/08/03 08:13:17;;;;;;;3.05;1.98;;;;;;;;;;5057663;28;20036;-70
2022/08/03 08:16:03;;;;;;;3.47;2.38;;;;;;;;;;5063410;28;20124;-69
2022/08/03 08:18:48;;;;;;;3.80;2.17;;;;;;;;;;5058057;28;20028;-74
2022/08/03 08:21:34;;;;;;;3.70;1.77;;;;;;;;;;5067362;28;20455;-74
2022/08/03 08:24:19;;;;;;;3.10;1.63;;;;;;;;;;5064448;28;20027;-73
2022/08/03 08:27:05;;;;;;;2.78;1.30;;;;;;;;;;5067924;28;20052;-75
2022/08/03 08:29:50;;;;;;;6.43;1.50;;;;;;;;;;5064394;28;20024;-73
2022/08/03 08:32:36;;;;;;;4.22;1.60;;;;;;;;;;5068045;28;20018;-81
2022/08/03 08:35:22;;;;;;;3.22;1.67;;;;;;;;;;5066222;28;20103;-72
2022/08/03 08:38:07;;;;;;;2.47;1.73;;;;;;;;;;5067231;28;20025;-73
2022/08/03 08:40:56;;;;;;;2.40;1.55;;;;;;;;;;5061390;28;20388;-72
2022/08/03 08:43:42;;;;;;;2.53;1.50;;;;;;;;;;5066209;28;20028;-71
2022/08/03 08:46:30;;;;;;;2.78;1.20;;;;;;;;;;5064988;28;20063;-71
2022/08/03 08:49:16;;;;;;;2.67;1.63;;;;;;;;;;5058925;28;20514;-72
2022/08/03 08:52:02;;;;;;;5.35;1.73;;;;;;;;;;5054674;28;20020;-78
2022/08/03 08:54:48;;;;;;;2.03;1.45;;;;;;;;;;5067564;28;20071;-73
2022/08/03 08:57:40;;;;;;;2.67;1.60;;;;;;;;;;5056023;28;20112;-73
2022/08/03 09:00:26;;;;;;;2.20;1.30;;;;;;;;;;5057813;28;20025;-75
2022/08/03 09:03:13;;;;;;;3.30;1.30;;;;;;;;;;5055848;28;20093;-75
2022/08/03 09:05:59;;;;;;;2.38;1.60;;;;;;;;;;5061951;28;20111;-76
2022/08/03 09:08:45;;;;;;;4.78;1.80;;;;;;;;;;5058866;28;20036;-71
2022/08/03 09:11:30;;;;;;;4.72;2.00;;;;;;;;;;5063111;28;20024;-65
2022/08/03 09:14:16;;;;;;;2.75;1.77;;;;;;;;;;5056980;28;20028;-76
2022/08/03 09:17:03;;;;;;;1.83;1.20;;;;;;;;;;5065858;28;20531;-74
2022/08/03 09:20:06;;;;;;;3.35;1.55;;;;;;;;;;5069971;28;20033;-75
2022/08/03 09:22:54;;;;;;;1.27;1.17;;;;;;;;;;5071731;28;20086;-73
2022/08/03 09:25:41;;;;;;;4.35;1.50;;;;;;;;;;5074230;28;20021;-74
2022/08/03 09:28:32;;;;;;;2.25;1.30;;;;;;;;;;5073534;28;20083;-70
2022/08/03 09:31:17;;;;;;;3.55;1.40;;;;;;;;;;5067891;28;20028;-80
2022/08/03 09:34:05;;;;;;;2.42;1.40;;;;;;;;;;5068473;28;20056;-82
2022/08/03 09:36:52;;;;;;;2.15;1.42;;;;;;;;;;5065037;28;20036;-77
2022/08/03 09:39:38;;;;;;;3.03;1.40;;;;;;;;;;5071620;28;20024;-76
2022/08/03 09:42:24;;;;;;;1.42;1.30;;;;;;;;;;5071168;28;20535;-85
2022/08/03 09:45:24;;;;;;;4.15;1.63;;;;;;;;;;5072091;28;20032;-79
2022/08/03 09:48:20;;;;;;;2.38;1.30;;;;;;;;;;5066471;28;20044;-75
2022/08/03 09:51:06;;;;;;;3.38;1.65;;;;;;;;;;5069345;28;20510;-63
2022/08/03 09:53:52;;;;;;;3.20;1.10;;;;;;;;;;5066911;28;20108;-64
2022/08/03 09:56:39;;;;;;;1.35;1.25;;;;;;;;;;5067310;28;20129;-64
2022/08/03 09:59:28;;;;;;;3.60;1.30;;;;;;;;;;5071740;28;20021;-65
2022/08/03 10:02:21;;;;;;;5.55;1.60;;;;;;;;;;5067393;28;20021;-66
2022/08/03 10:05:08;;;;;;;1.23;1.13;;;;;;;;;;5069686;28;20034;-79
2022/08/03 10:07:53;;;;;;;2.20;1.50;;;;;;;;;;5064009;28;20028;-69
2022/08/03 10:10:43;;;;;;;2.13;1.42;;;;;;;;;;5067976;28;20472;-70
2022/08/03 10:13:28;;;;;;;2.47;1.40;;;;;;;;;;5065609;28;20032;-69
2022/08/03 10:16:14;;;;;;;2.08;1.20;;;;;;;;;;5058670;28;20021;-70
2022/08/03 10:19:00;;;;;;;2.53;1.50;;;;;;;;;;5063683;28;20048;-73
2022/08/03 10:21:52;;;;;;;3.00;1.20;;;;;;;;;;5059133;28;20023;-70
2022/08/03 10:24:40;;;;;;;3.65;1.48;;;;;;;;;;5070212;28;20036;-75
2022/08/03 10:27:30;;;;;;;1.70;1.48;;;;;;;;;;5069803;28;20099;-64
2022/08/03 10:30:16;;;;;;;2.17;1.50;;;;;;;;;;5069074;28;20098;-66
2022/08/03 10:33:08;;;;;;;7.65;2.47;;;;;;;;;;5071618;28;20074;-67
2022/08/03 10:35:56;;;;;;;4.18;2.10;;;;;;;;;;5069063;28;20029;-67
2022/08/03 10:38:55;;;;;;;4.28;1.98;;;;;;;;;;5070584;28;20035;-65
2022/08/03 10:41:43;;;;;;;5.85;2.78;;;;;;;;;;5064299;28;20074;-70
2022/08/03 10:44:32;;;;;;;2.75;1.80;;;;;;;;;;5066422;28;20029;-65
2022/08/03 10:47:18;;;;;;;4.72;1.70;;;;;;;;;;5065098;28;20048;-64
2022/08/03 10:50:04;;;;;;;3.42;1.40;;;;;;;;;;5060153;28;20032;-74
2022/08/03 10:52:57;;;;;;;3.08;1.17;;;;;;;;;;5063372;28;20017;-73
2022/08/03 10:58:49;;;;;;;1.65;1.55;;;;;;;;;;5071319;28;20471;-72
2022/08/03 11:01:48;;;;;;;1.52;1.42;;;;;;;;;;5070886;28;20166;-71
2022/08/03 11:04:34;;;;;;;3.97;1.42;;;;;;;;;;5061938;28;20387;-77
2022/08/03 11:07:21;;;;;;;1.98;1.70;;;;;;;;;;5064067;28;20123;-76
2022/08/03 11:10:26;;;;;;;3.25;1.92;;;;;;;;;;5064634;28;20066;-82
2022/08/03 11:13:14;;;;;;;2.95;1.80;;;;;;;;;;5063252;28;20016;-78
2022/08/03 11:16:01;;;;;;;3.17;1.63;;;;;;;;;;5065046;28;20163;-77
2022/08/03 11:19:00;;;;;;;3.53;1.60;;;;;;;;;;5066547;28;20024;-75
2022/08/03 11:21:45;;;;;;;;;;;;;;;;;;5068317;28;20020;-72
2022/08/03 11:24:39;;;;;;;6.22;1.40;;;;;;;;;;5070305;28;19908;-73
2022/08/03 11:27:32;;;;;;;2.80;1.65;;;;;;;;;;5062219;28;20043;-74
2022/08/03 11:30:18;;;;;;;1.83;1.48;;;;;;;;;;5067028;28;20036;-75
2022/08/03 11:33:03;;;;;;;2.33;1.70;;;;;;;;;;5061462;28;20035;-75
2022/08/03 11:35:59;;;;;;;2.25;1.48;;;;;;;;;;5066797;28;20020;-73
2022/08/03 11:39:04;;;;;;;4.03;1.73;;;;;;;;;;5068468;28;20032;-75
2022/08/03 11:41:49;;;;;;;4.18;2.20;;;;;;;;;;5060076;28;20294;-77
2022/08/03 11:44:39;;;;;;;7.15;1.98;;;;;;;;;;5069763;28;20511;-78
2022/08/03 11:47:26;;;;;;;1.55;1.45;;;;;;;;;;5066795;28;20111;-78
2022/08/03 11:50:11;;;;;;;1.90;1.50;;;;;;;;;;5055805;28;20024;-78
2022/08/03 11:52:57;;;;;;;2.78;1.55;;;;;;;;;;5070781;28;20051;-79
2022/08/03 11:55:47;;;;;;;4.57;1.70;;;;;;;;;;5062651;28;20444;-78
2022/08/03 11:58:33;;;;;;;2.72;1.83;;;;;;;;;;5058618;28;20032;-76
2022/08/03 12:01:19;;;;;;;2.92;1.45;;;;;;;;;;5066401;28;20029;-76
2022/08/03 12:04:05;;;;;;;2.58;1.50;;;;;;;;;;5062298;28;20027;-74
2022/08/03 12:07:00;;;;;;;2.45;1.55;;;;;;;;;;5060909;28;20047;-74
2022/08/03 12:10:04;;;;;;;1.70;1.50;;;;;;;;;;5065491;28;20025;-75
2022/08/03 12:12:57;;;;;;;4.43;1.55;;;;;;;;;;5059191;28;20033;-74
2022/08/03 12:15:43;;;;;;;3.83;1.40;;;;;;;;;;5056690;28;20035;-73
2022/08/03 12:18:29;;;;;;;4.57;1.48;;;;;;;;;;5062295;28;20021;-78
2022/08/03 12:21:15;;;;;;;2.70;1.60;;;;;;;;;;5063140;28;20078;-78
2022/08/03 12:24:02;;;;;;;2.33;1.80;;;;;;;;;;5065138;28;20384;-78
2022/08/03 12:26:48;;;;;;;2.40;1.63;;;;;;;;;;5060654;28;20074;-80
2022/08/03 12:29:34;;;;;;;2.13;1.50;;;;;;;;;;5055717;28;20024;-79
2022/08/03 12:32:20;;;;;;;2.53;1.52;;;;;;;;;;5067921;28;20017;-80
2022/08/03 12:35:06;;;;;;;2.47;1.60;;;;;;;;;;5068508;28;20028;-74
2022/08/03 12:37:51;;;;;;;2.45;1.77;;;;;;;;;;5068064;28;20028;-73
2022/08/03 12:40:37;;;;;;;3.63;1.80;;;;;;;;;;5068778;28;20414;-76
2022/08/03 12:43:23;;;;;;;1.38;1.27;;;;;;;;;;5058291;28;20047;-74
2022/08/03 12:46:13;;;;;;;3.67;2.00;;;;;;;;;;5066439;28;20096;-73
2022/08/03 12:49:01;;;;;;;3.00;1.70;;;;;;;;;;5056642;28;20499;-73
2022/08/03 12:51:49;;;;;;;2.17;1.70;;;;;;;;;;5057674;28;20533;-79
2022/08/03 12:54:35;;;;;;;3.42;1.67;;;;;;;;;;5059074;28;20025;-73
2022/08/03 12:57:21;;;;;;;2.40;1.60;;;;;;;;;;5063850;28;20042;-74
2022/08/03 13:00:11;;;;;;;2.80;1.65;;;;;;;;;;5062053;28;20021;-74
2022/08/03 13:03:05;;;;;;;2.95;1.60;;;;;;;;;;5054554;28;20029;-74
2022/08/03 13:05:51;;;;;;;2.90;1.70;;;;;;;;;;5062727;28;20108;-72
2022/08/03 13:08:37;;;;;;;2.70;1.92;;;;;;;;;;5062895;28;20566;-76
2022/08/03 13:11:24;;;;;;;2.70;1.73;;;;;;;;;;5058162;28;20028;-77
2022/08/03 13:14:10;;;;;;;3.35;1.58;;;;;;;;;;5054374;28;20488;-75
2022/08/03 13:16:55;;;;;;;1.70;1.60;;;;;;;;;;5065212;28;20060;-76
2022/08/03 13:19:41;;;;;;;2.67;1.52;;;;;;;;;;5070354;28;20437;-75
2022/08/03 13:22:31;;;;;;;4.82;1.98;;;;;;;;;;5065827;28;20028;-73
2022/08/03 13:25:17;;;;;;;3.92;1.42;;;;;;;;;;5069170;28;20102;-75
2022/08/03 13:28:05;;;;;;;2.63;1.40;;;;;;;;;;5062447;28;20395;-77
2022/08/03 13:30:52;;;;;;;2.30;1.80;;;;;;;;;;5058444;28;20060;-78
2022/08/03 13:33:39;;;;;;;3.92;1.65;;;;;;;;;;5065972;28;20032;-79
2022/08/03 13:36:25;;;;;;;2.13;1.92;;;;;;;;;;5064119;28;20036;-76
2022/08/03 13:39:10;;;;;;;1.67;1.58;;;;;;;;;;5050229;28;20017;-78
2022/08/03 13:41:56;;;;;;;1.67;1.58;;;;;;;;;;5064367;28;20024;-79
2022/08/03 13:44:42;;;;;;;4.03;1.90;;;;;;;;;;5055576;28;20024;-67
2022/08/03 13:47:27;;;;;;;5.13;2.00;;;;;;;;;;5063325;28;20496;-72
2022/08/03 13:50:14;;;;;;;2.17;1.60;;;;;;;;;;5062564;28;20479;-76
2022/08/03 13:52:59;;;;;;;2.72;1.60;;;;;;;;;;5058905;28;20076;-76
2022/08/03 13:55:45;;;;;;;4.75;1.73;;;;;;;;;;5053530;28;20104;-78
2022/08/03 13:58:30;;;;;;;2.47;1.70;;;;;;;;;;5063394;28;20029;-73
2022/08/03 14:01:16;;;;;;;2.85;2.10;;;;;;;;;;5067175;28;20059;-88
2022/08/03 14:04:02;;;;;;;2.58;1.67;;;;;;;;;;5063136;28;20021;-73
2022/08/03 14:06:48;;;;;;;2.45;1.40;;;;;;;;;;5063941;28;20650;-71
2022/08/03 14:09:33;;;;;;;3.38;1.85;;;;;;;;;;5065166;28;20126;-71
2022/08/03 14:12:19;;;;;;;2.35;1.65;;;;;;;;;;5056441;28;20017;-70
2022/08/03 14:15:08;;;;;;;3.42;1.80;;;;;;;;;;5063534;28;20031;-71
2022/08/03 14:17:55;;;;;;;1.55;1.45;;;;;;;;;;5066829;28;20036;-73
2022/08/03 14:20:40;;;;;;;1.77;1.55;;;;;;;;;;5063194;28;20013;-70
2022/08/03 14:23:26;;;;;;;4.03;1.75;;;;;;;;;;5071148;28;20039;-73
2022/08/03 14:26:13;;;;;;;2.45;2.05;;;;;;;;;;5071501;28;20432;-70
2022/08/03 14:28:59;;;;;;;1.90;1.58;;;;;;;;;;5065332;28;20032;-68
2022/08/03 14:31:44;;;;;;;4.78;1.88;;;;;;;;;;5069660;28;20111;-68
2022/08/03 14:34:30;;;;;;;1.92;1.55;;;;;;;;;;5068343;28;20089;-67
2022/08/03 14:37:15;;;;;;;2.00;1.50;;;;;;;;;;5066207;28;20483;-67
2022/08/03 14:40:01;;;;;;;3.95;1.90;;;;;;;;;;5060824;28;20028;-69
2022/08/03 14:42:47;;;;;;;6.65;2.08;;;;;;;;;;5064537;28;20116;-75
2022/08/03 14:45:33;;;;;;;2.00;1.70;;;;;;;;;;5073386;28;20020;-75
2022/08/03 14:48:19;;;;;;;4.88;1.95;;;;;;;;;;5068166;28;20044;-77
2022/08/03 14:51:04;;;;;;;4.10;1.88;;;;;;;;;;5059519;28;20060;-74
2022/08/03 14:53:50;;;;;;;4.25;1.70;;;;;;;;;;5062155;28;20036;-78
2022/08/03 14:56:35;;;;;;;3.05;2.10;;;;;;;;;;5066236;28;20162;-80
2022/08/03 14:59:21;;;;;;;3.13;1.70;;;;;;;;;;5053085;28;20049;-68
2022/08/03 15:02:07;;;;;;;3.75;2.40;;;;;;;;;;5066556;28;20040;-72
2022/08/03 15:04:52;;;;;;;4.15;2.22;;;;;;;;;;5066975;28;20021;-73
2022/08/03 15:07:38;;;;;;;2.47;1.90;;;;;;;;;;5061716;28;20384;-70
2022/08/03 15:10:23;;;;;;;3.47;1.80;;;;;;;;;;5069314;28;20027;-71
2022/08/03 15:13:09;;;;;;;2.72;2.00;;;;;;;;;;5069984;28;20390;-75
2022/08/03 15:15:56;;;;;;;6.30;2.45;;;;;;;;;;5066123;28;20029;-70
2022/08/03 15:18:42;;;;;;;2.67;1.73;;;;;;;;;;5069330;28;20423;-76
2022/08/03 15:21:27;;;;;;;3.22;1.95;;;;;;;;;;5054886;28;20021;-80
2022/08/03 15:24:13;;;;;;;3.83;2.05;;;;;;;;;;5071367;28;20036;-80
2022/08/03 15:26:58;;;;;;;2.25;1.75;;;;;;;;;;5068471;28;20032;-81
2022/08/03 15:29:44;;;;;;;2.63;1.70;;;;;;;;;;5069281;28;20045;-82
2022/08/03 15:32:29;;;;;;;2.30;1.90;;;;;;;;;;5069396;28;20059;-79
2022/08/03 15:35:15;;;;;;;1.90;1.60;;;;;;;;;;5068635;28;20031;-78
2022/08/03 15:38:01;;;;;;;4.10;1.75;;;;;;;;;;5067848;28;20042;-72
2022/08/03 15:40:46;;;;;;;1.80;1.20;;;;;;;;;;5066772;28;20048;-67
2022/08/03 15:43:32;;;;;;;2.22;1.63;;;;;;;;;;5068874;28;20028;-67
2022/08/03 15:46:18;;;;;;;2.00;1.63;;;;;;;;;;5067972;28;20358;-67
2022/08/03 15:49:03;;;;;;;3.03;1.63;;;;;;;;;;5056501;28;20104;-67
2022/08/03 15:51:49;;;;;;;2.97;1.95;;;;;;;;;;5057123;28;20029;-68
2022/08/03 15:54:34;;;;;;;3.03;1.92;;;;;;;;;;5064616;28;20016;-74
2022/08/03 15:57:20;;;;;;;6.70;1.85;;;;;;;;;;5066898;28;20033;-79
2022/08/03 16:00:07;;;;;;;1.92;1.70;;;;;;;;;;5064948;28;20013;-77
2022/08/03 16:02:53;;;;;;;3.58;1.80;;;;;;;;;;5063418;28;20107;-83
2022/08/03 16:05:38;;;;;;;1.92;1.23;;;;;;;;;;5066223;28;20025;-83
2022/08/03 16:08:24;;;;;;;6.30;3.17;;;;;;;;;;5066646;28;20039;-86
2022/08/03 16:11:10;;;;;;;1.60;1.40;;;;;;;;;;5065806;28;20088;-83
2022/08/03 16:13:55;;;;;;;2.38;1.40;;;;;;;;;;5065972;28;20028;-70
2022/08/03 16:16:41;;;;;;;2.10;1.52;;;;;;;;;;5067148;28;20125;-76
2022/08/03 16:19:27;;;;;;;1.88;1.50;;;;;;;;;;5064556;28;20028;-77
2022/08/03 16:22:12;;;;;;;2.90;2.03;;;;;;;;;;5062707;28;20120;-76
2022/08/03 16:24:58;;;;;;;2.65;1.60;;;;;;;;;;5069815;28;20028;-76
2022/08/03 16:27:44;;;;;;;2.20;1.70;;;;;;;;;;5067574;28;20029;-77
2022/08/03 16:30:30;;;;;;;1.75;1.58;;;;;;;;;;5070292;28;20020;-77
2022/08/03 16:33:15;;;;;;;2.00;1.42;;;;;;;;;;5059850;28;20032;-80
2022/08/03 16:36:01;;;;;;;8.32;1.60;;;;;;;;;;5068157;28;20021;-73
2022/08/03 16:38:47;;;;;;;2.58;1.48;;;;;;;;;;5067343;28;20033;-73
2022/08/03 16:41:33;;;;;;;2.38;1.75;;;;;;;;;;5055934;28;20012;-72
2022/08/03 16:44:18;;;;;;;4.60;1.83;;;;;;;;;;5065179;28;20070;-73
2022/08/03 16:47:04;;;;;;;2.17;1.98;;;;;;;;;;5066668;28;20119;-72
2022/08/03 16:49:50;;;;;;;3.35;2.20;;;;;;;;;;5068397;28;20550;-71